Time;durP1;ratioP1;P1;durP2;ratioP2;P2;SDS_P1;SDS_P2;PMS_P1;PMS_P2;Temp;Humidity;BMP_temperature;BMP_pressure;BME280_temperature;BME280_humidity;BME280_pressure;Samples;Min_cycle;Max_cycle;Signal;HPM_P1;HPM_P2
2022/05/06 00:01:38;;;;;;;1.98;1.27;;;14.50;1.00;;;;;;6238136;23;20038;-90
2022/05/06 00:04:06;;;;;;;2.88;1.30;;;14.40;1.00;;;;;;6204237;22;20016;-91
2022/05/06 00:06:33;;;;;;;3.38;2.10;;;14.40;1.00;;;;;;6196234;23;20042;-91
2022/05/06 00:09:01;;;;;;;2.88;1.50;;;14.40;1.00;;;;;;6221728;23;20012;-91
2022/05/06 00:11:28;;;;;;;2.20;1.45;;;14.40;1.00;;;;;;6195768;23;20016;-91
2022/05/06 00:13:56;;;;;;;2.95;1.77;;;14.40;1.00;;;;;;6195816;22;20020;-91
2022/05/06 00:16:24;;;;;;;3.38;1.77;;;14.30;1.00;;;;;;6220637;23;20467;-91
2022/05/06 00:18:52;;;;;;;3.13;2.10;;;14.30;1.00;;;;;;6195265;23;20070;-91
2022/05/06 00:21:21;;;;;;;2.75;1.50;;;14.30;1.00;;;;;;6220517;23;20036;-92
2022/05/06 00:23:48;;;;;;;2.67;1.67;;;14.30;1.00;;;;;;6194939;22;20040;-91
2022/05/06 00:26:15;;;;;;;3.20;2.03;;;14.30;1.00;;;;;;6219752;23;20019;-92
2022/05/06 00:28:43;;;;;;;2.83;1.67;;;14.20;1.00;;;;;;6219786;23;20268;-91
2022/05/06 00:31:10;;;;;;;3.08;1.80;;;14.20;1.00;;;;;;6219527;23;20027;-92
2022/05/06 00:33:38;;;;;;;2.38;1.60;;;14.20;1.00;;;;;;6219549;23;20031;-91
2022/05/06 00:36:05;;;;;;;2.95;1.95;;;14.20;1.00;;;;;;6194434;23;20024;-91
2022/05/06 00:38:32;;;;;;;3.38;1.73;;;14.20;1.00;;;;;;6194560;23;20452;-91
2022/05/06 00:41:01;;;;;;;3.30;1.90;;;14.20;1.00;;;;;;6195073;23;20023;-91
2022/05/06 00:43:28;;;;;;;3.28;1.92;;;14.10;1.00;;;;;;6219682;23;20088;-91
2022/05/06 00:45:56;;;;;;;3.00;1.85;;;14.10;1.00;;;;;;6194612;23;20016;-91
2022/05/06 00:48:28;;;;;;;4.18;2.30;;;14.10;1.00;;;;;;6219781;23;20024;-91
2022/05/06 00:50:58;;;;;;;3.03;1.85;;;14.10;1.00;;;;;;6194479;23;20628;-91
2022/05/06 00:53:26;;;;;;;3.38;1.58;;;14.00;1.00;;;;;;6219437;23;20024;-91
2022/05/06 00:55:55;;;;;;;2.90;1.90;;;14.00;1.00;;;;;;6219697;23;20078;-90
2022/05/06 00:58:29;;;;;;;3.17;2.05;;;14.00;1.00;;;;;;6219739;23;20016;-91
2022/05/06 01:00:56;;;;;;;;;;;14.00;1.00;;;;;;6195627;23;20031;-91
2022/05/06 01:03:23;;;;;;;3.50;1.90;;;13.90;1.00;;;;;;6219771;23;19966;-90
2022/05/06 01:05:51;;;;;;;2.95;2.05;;;13.90;1.00;;;;;;6194828;23;20036;-90
2022/05/06 01:08:19;;;;;;;3.58;2.30;;;13.90;1.00;;;;;;6195095;22;20020;-90
2022/05/06 01:10:47;;;;;;;3.20;1.98;;;13.90;1.00;;;;;;6220411;23;20395;-91
2022/05/06 01:13:15;;;;;;;3.75;2.08;;;13.80;1.00;;;;;;6195070;23;20122;-91
2022/05/06 01:15:42;;;;;;;3.42;2.50;;;13.90;1.00;;;;;;6195239;23;20020;-91
2022/05/06 01:18:16;;;;;;;2.78;1.92;;;13.80;1.00;;;;;;6196103;23;20020;-91
2022/05/06 01:20:48;;;;;;;2.25;1.35;;;13.80;1.00;;;;;;6194801;23;20024;-91
2022/05/06 01:23:16;;;;;;;2.80;1.77;;;13.80;1.00;;;;;;6196039;23;20102;-90
2022/05/06 01:25:44;;;;;;;2.63;1.70;;;13.80;1.00;;;;;;6196864;23;20299;-91
2022/05/06 01:28:13;;;;;;;2.00;1.40;;;13.70;1.00;;;;;;6195864;23;20439;-91
2022/05/06 01:30:45;;;;;;;2.65;1.75;;;13.70;1.00;;;;;;6219531;23;20048;-91
2022/05/06 01:33:21;;;;;;;2.00;1.17;;;13.70;1.00;;;;;;6195269;23;20020;-91
2022/05/06 01:35:52;;;;;;;3.50;2.08;;;13.70;1.00;;;;;;6195512;23;20078;-90
2022/05/06 01:38:25;;;;;;;2.90;1.73;;;13.70;1.00;;;;;;6219716;23;20020;-91
2022/05/06 01:40:58;;;;;;;1.98;1.40;;;13.70;1.00;;;;;;6195912;23;20031;-91
2022/05/06 01:43:38;;;;;;;2.30;1.63;;;13.60;1.00;;;;;;6197848;23;20020;-91
2022/05/06 01:46:07;;;;;;;1.85;1.30;;;13.60;1.00;;;;;;6196803;23;20016;-91
2022/05/06 01:48:36;;;;;;;2.35;1.20;;;13.60;1.00;;;;;;6196420;23;20127;-90
2022/05/06 01:51:07;;;;;;;2.33;1.40;;;13.50;1.00;;;;;;6196965;23;20043;-91
2022/05/06 01:53:36;;;;;;;2.15;1.27;;;13.50;1.00;;;;;;6197030;23;20020;-92
2022/05/06 01:56:17;;;;;;;1.88;1.10;;;13.50;1.00;;;;;;6198331;23;20103;-92
2022/05/06 01:58:46;;;;;;;2.53;1.30;;;13.50;1.00;;;;;;6197682;23;20016;-92
2022/05/06 02:01:22;;;;;;;1.75;0.98;;;13.50;1.00;;;;;;6221447;23;20017;-92
2022/05/06 02:06:39;;;;;;;1.52;1.10;;;13.40;1.00;;;;;;6222207;23;20470;-92
2022/05/06 02:09:16;;;;;;;1.73;1.08;;;13.40;1.00;;;;;;6198948;23;20016;-92
2022/05/06 02:11:59;;;;;;;1.38;0.75;;;13.40;1.00;;;;;;6199119;23;20039;-92
2022/05/06 02:14:54;;;;;;;1.20;1.00;;;13.40;1.00;;;;;;6230140;23;20024;-92
2022/05/06 02:17:39;;;;;;;1.73;0.95;;;13.30;1.00;;;;;;6222007;23;20020;-92
2022/05/06 02:20:37;;;;;;;2.65;1.30;;;13.30;1.00;;;;;;6204428;23;20016;-92
2022/05/06 02:23:26;;;;;;;1.70;1.10;;;13.30;1.00;;;;;;6248833;23;20027;-93
2022/05/06 02:26:23;;;;;;;2.47;1.55;;;13.30;1.00;;;;;;6203242;23;20092;-92
2022/05/06 02:28:58;;;;;;;2.20;1.30;;;13.30;1.00;;;;;;6198620;23;20016;-92
2022/05/06 02:34:16;;;;;;;2.25;1.20;;;13.20;1.00;;;;;;6246845;22;20024;-91
2022/05/06 02:36:50;;;;;;;1.85;1.05;;;13.20;1.00;;;;;;6198493;23;20020;-90
2022/05/06 02:39:25;;;;;;;2.65;1.17;;;13.20;1.00;;;;;;6198753;23;20024;-91
2022/05/06 02:42:06;;;;;;;2.08;1.20;;;13.20;1.00;;;;;;6190002;23;20040;-92
2022/05/06 02:44:34;;;;;;;3.05;1.52;;;13.10;1.00;;;;;;6225425;23;20020;-92
2022/05/06 02:47:04;;;;;;;3.30;1.58;;;13.10;1.00;;;;;;6202539;23;20016;-92
2022/05/06 02:49:31;;;;;;;2.53;1.40;;;13.10;1.00;;;;;;6226963;23;20027;-91
2022/05/06 02:52:02;;;;;;;2.33;1.38;;;13.10;1.00;;;;;;6206291;23;20070;-91
2022/05/06 02:54:31;;;;;;;3.60;1.55;;;13.10;1.00;;;;;;6199345;23;20456;-91
2022/05/06 02:57:00;;;;;;;3.03;1.50;;;13.10;1.00;;;;;;6191846;23;20512;-91
2022/05/06 02:59:31;;;;;;;3.05;1.55;;;13.00;1.00;;;;;;6191654;23;20110;-92
2022/05/06 03:02:01;;;;;;;3.80;2.25;;;13.00;1.00;;;;;;6221650;23;20503;-93
2022/05/06 03:04:33;;;;;;;3.60;1.65;;;13.00;1.00;;;;;;6221783;23;20070;-91
2022/05/06 03:07:06;;;;;;;1.85;1.20;;;13.00;1.00;;;;;;6196567;23;20043;-91
2022/05/06 03:09:45;;;;;;;2.50;1.45;;;13.00;1.00;;;;;;6199184;23;20020;-91
2022/05/06 03:12:15;;;;;;;2.35;1.08;;;13.00;1.00;;;;;;6196554;23;20016;-90
2022/05/06 03:14:50;;;;;;;3.53;1.73;;;12.90;1.00;;;;;;6220439;23;20103;-91
2022/05/06 03:17:30;;;;;;;2.90;1.25;;;12.90;1.00;;;;;;6198619;23;20511;-90
2022/05/06 03:19:58;;;;;;;4.20;2.08;;;12.90;1.00;;;;;;6221426;23;20012;-91
2022/05/06 03:22:26;;;;;;;2.72;1.60;;;12.90;1.00;;;;;;6246254;23;20091;-91
2022/05/06 03:24:53;;;;;;;3.45;1.73;;;12.90;1.00;;;;;;6196243;23;20043;-91
2022/05/06 03:30:06;;;;;;;4.18;1.90;;;12.80;1.00;;;;;;6221356;23;20032;-90
2022/05/06 03:32:35;;;;;;;2.08;0.95;;;12.80;1.00;;;;;;6248474;23;20018;-91
2022/05/06 03:35:04;;;;;;;2.60;1.30;;;12.80;1.00;;;;;;6195699;23;20383;-91
2022/05/06 03:37:33;;;;;;;3.63;1.80;;;12.80;1.00;;;;;;6221463;23;20443;-91
2022/05/06 03:40:01;;;;;;;3.35;1.65;;;12.80;1.00;;;;;;6221110;23;20016;-91
2022/05/06 03:42:31;;;;;;;3.70;1.45;;;12.70;1.00;;;;;;6196464;23;20012;-91
2022/05/06 03:44:59;;;;;;;2.25;1.30;;;12.70;1.00;;;;;;6195836;23;20016;-90
2022/05/06 03:47:27;;;;;;;2.13;1.40;;;12.70;1.00;;;;;;6196485;23;20020;-90
2022/05/06 03:52:41;;;;;;;3.10;1.42;;;12.70;1.00;;;;;;6220499;23;20019;-91
2022/05/06 03:55:08;;;;;;;3.00;1.35;;;12.70;1.00;;;;;;6171976;23;20039;-91
2022/05/06 03:57:36;;;;;;;2.85;1.50;;;12.60;1.00;;;;;;6195706;23;20040;-90
2022/05/06 04:00:04;;;;;;;2.72;1.60;;;12.60;1.00;;;;;;6195557;23;20440;-90
2022/05/06 04:02:42;;;;;;;2.40;1.33;;;12.60;1.00;;;;;;6247328;23;20124;-90
2022/05/06 04:05:15;;;;;;;2.67;1.40;;;12.60;1.00;;;;;;6197199;23;20042;-90
2022/05/06 04:07:42;;;;;;;2.58;1.15;;;12.60;1.00;;;;;;6195835;23;20016;-91
2022/05/06 04:10:09;;;;;;;2.63;1.20;;;12.50;1.00;;;;;;6196307;23;20390;-90
2022/05/06 04:12:37;;;;;;;2.95;1.25;;;12.50;1.00;;;;;;6222042;23;20051;-90
2022/05/06 04:15:08;;;;;;;3.47;1.48;;;12.50;1.00;;;;;;6196538;23;20020;-91
2022/05/06 04:17:39;;;;;;;3.03;1.52;;;12.50;1.00;;;;;;6196414;23;20040;-92
2022/05/06 04:25:49;;;;;;;1.80;1.00;;;12.50;1.00;;;;;;6219798;23;20456;-92
2022/05/06 04:28:21;;;;;;;3.60;1.40;;;12.50;1.00;;;;;;6220423;23;20016;-91
2022/05/06 04:30:58;;;;;;;3.00;1.58;;;12.40;1.00;;;;;;6220569;23;20042;-91
2022/05/06 04:33:32;;;;;;;1.83;0.95;;;12.40;1.00;;;;;;6196574;23;20070;-91
2022/05/06 04:36:01;;;;;;;1.63;0.77;;;12.40;1.00;;;;;;6195458;23;20031;-91
2022/05/06 04:38:36;;;;;;;2.05;1.17;;;12.40;1.00;;;;;;6196581;23;20020;-91
2022/05/06 04:41:07;;;;;;;1.85;1.10;;;12.40;1.00;;;;;;6196119;23;20363;-91
2022/05/06 04:43:38;;;;;;;1.60;0.90;;;12.40;1.00;;;;;;6221018;23;20087;-91
2022/05/06 04:46:06;;;;;;;1.67;1.13;;;12.40;1.00;;;;;;6220419;23;20107;-91
2022/05/06 04:48:35;;;;;;;2.33;1.13;;;12.40;1.00;;;;;;6196222;23;20020;-91
2022/05/06 04:51:05;;;;;;;1.38;0.85;;;12.40;1.00;;;;;;6196258;23;20452;-91
2022/05/06 04:53:33;;;;;;;1.48;0.85;;;12.30;1.00;;;;;;6195410;23;20016;-91
2022/05/06 04:56:00;;;;;;;1.75;1.10;;;12.30;1.00;;;;;;6189744;23;20047;-89
2022/05/06 04:58:35;;;;;;;2.45;1.02;;;12.30;1.00;;;;;;6192053;23;20036;-91
2022/05/06 05:01:11;;;;;;;2.92;1.60;;;12.30;1.00;;;;;;6221741;23;20020;-91
2022/05/06 05:03:39;;;;;;;1.50;0.65;;;12.30;1.00;;;;;;6220250;23;20016;-90
2022/05/06 05:06:07;;;;;;;1.83;0.93;;;12.30;1.00;;;;;;6220943;23;20019;-91
2022/05/06 05:08:37;;;;;;;1.92;1.02;;;12.30;1.00;;;;;;6219635;23;20095;-91
2022/05/06 05:11:04;;;;;;;2.88;1.67;;;12.30;1.00;;;;;;6195530;23;20418;-91
2022/05/06 05:13:40;;;;;;;2.30;1.10;;;12.20;1.00;;;;;;6219821;23;20027;-91
2022/05/06 05:16:20;;;;;;;2.60;1.30;;;12.30;1.00;;;;;;6199011;23;20027;-90
2022/05/06 05:18:47;;;;;;;2.40;1.30;;;12.30;1.00;;;;;;6197288;23;20040;-90
2022/05/06 05:21:15;;;;;;;1.85;1.08;;;12.30;1.00;;;;;;6197071;23;20044;-91
2022/05/06 05:23:45;;;;;;;2.15;1.17;;;12.30;1.00;;;;;;6222100;22;20020;-91
2022/05/06 05:26:13;;;;;;;2.35;1.10;;;12.30;1.00;;;;;;6199345;23;20039;-89
2022/05/06 05:28:41;;;;;;;3.20;1.42;;;12.20;1.00;;;;;;6227655;23;20024;-89
2022/05/06 05:31:08;;;;;;;3.00;1.23;;;12.20;1.00;;;;;;6201421;23;20048;-89
2022/05/06 05:33:39;;;;;;;1.50;1.10;;;12.20;1.00;;;;;;6202210;23;20086;-90
2022/05/06 05:36:07;;;;;;;2.15;0.88;;;12.20;1.00;;;;;;6205349;23;20328;-90
2022/05/06 05:38:38;;;;;;;2.97;1.88;;;12.20;1.00;;;;;;6200935;23;20082;-92
2022/05/06 05:42:03;;;;;;;1.83;1.20;;;12.20;1.00;;;;;;6225720;23;20012;-93
2022/05/06 05:52:55;;;;;;;2.33;1.10;;;12.20;1.00;;;;;;6238425;23;20103;-91
2022/05/06 05:55:48;;;;;;;1.98;1.10;;;12.20;1.00;;;;;;6176283;23;20039;-94
2022/05/06 05:58:23;;;;;;;2.10;1.00;;;12.20;1.00;;;;;;6169120;23;20372;-92
2022/05/06 06:01:18;;;;;;;2.33;1.30;;;12.20;1.00;;;;;;6168328;23;20059;-90
2022/05/06 06:03:54;;;;;;;2.08;1.08;;;12.10;1.00;;;;;;6174783;23;20063;-92
2022/05/06 06:06:26;;;;;;;1.80;0.93;;;12.20;1.00;;;;;;6191607;23;20048;-93
2022/05/06 06:09:06;;;;;;;2.20;1.05;;;12.20;1.00;;;;;;6168203;23;20344;-91
2022/05/06 06:11:44;;;;;;;2.67;1.38;;;12.20;1.00;;;;;;6190700;23;20059;-92
2022/05/06 06:14:35;;;;;;;1.60;0.93;;;12.10;1.00;;;;;;6190170;23;20021;-91
2022/05/06 06:17:14;;;;;;;2.03;1.15;;;12.10;1.00;;;;;;6168359;23;20067;-90
2022/05/06 06:19:55;;;;;;;1.15;0.90;;;12.20;1.00;;;;;;6190692;23;20024;-91
2022/05/06 06:22:25;;;;;;;2.53;1.33;;;12.10;1.00;;;;;;6217011;23;20028;-90
2022/05/06 06:24:59;;;;;;;1.55;0.85;;;12.20;1.00;;;;;;6167032;23;20016;-90
2022/05/06 06:27:29;;;;;;;1.27;0.90;;;12.20;1.00;;;;;;6189946;23;20040;-90
2022/05/06 06:30:05;;;;;;;1.80;0.93;;;12.20;1.00;;;;;;6166997;23;20017;-90
2022/05/06 06:32:41;;;;;;;2.30;1.40;;;12.20;1.00;;;;;;6189723;23;20051;-91
2022/05/06 06:35:10;;;;;;;1.55;1.17;;;12.20;1.00;;;;;;6189787;23;20024;-90
2022/05/06 06:37:49;;;;;;;2.05;1.20;;;12.20;1.00;;;;;;6167744;23;20021;-90
2022/05/06 06:40:18;;;;;;;1.42;0.98;;;12.30;1.00;;;;;;6165825;23;20032;-90
2022/05/06 06:42:47;;;;;;;2.22;1.15;;;12.30;1.00;;;;;;6165838;23;20074;-91
2022/05/06 06:45:35;;;;;;;1.27;0.85;;;12.30;1.00;;;;;;6194586;23;20048;-91
2022/05/06 06:48:32;;;;;;;1.02;0.80;;;12.30;1.00;;;;;;6170006;23;20020;-91
2022/05/06 06:51:21;;;;;;;1.63;1.08;;;12.30;1.00;;;;;;6248081;23;20085;-90
2022/05/06 06:53:54;;;;;;;1.75;1.33;;;12.40;4.70;;;;;;6221734;22;20042;-90
2022/05/06 06:56:23;;;;;;;3.33;1.05;;;12.30;2.70;;;;;;6196440;23;20024;-92
2022/05/06 06:58:56;;;;;;;1.65;0.77;;;12.40;2.10;;;;;;6199300;23;20107;-91
2022/05/06 07:01:27;;;;;;;1.38;0.80;;;12.40;2.30;;;;;;6198348;23;20066;-91
2022/05/06 07:03:56;;;;;;;0.98;0.63;;;12.40;2.80;;;;;;6196185;22;20102;-90
2022/05/06 07:12:00;;;;;;;1.92;1.00;;;12.50;20.30;;;;;;6221199;23;20020;-91
2022/05/06 07:14:35;;;;;;;1.80;1.17;;;12.40;99.90;;;;;;6220903;23;20111;-89
2022/05/06 07:25:50;;;;;;;0.88;0.55;;;12.40;99.90;;;;;;6250178;22;20339;-93
2022/05/06 07:29:20;;;;;;;1.65;1.00;;;12.40;99.90;;;;;;6250687;23;20131;-93
2022/05/06 07:41:20;;;;;;;1.35;1.17;;;12.40;99.90;;;;;;6186731;22;20059;-91
2022/05/06 07:44:33;;;;;;;2.67;1.83;;;12.50;99.90;;;;;;6164449;23;20512;-91
2022/05/06 09:21:27;;;;;;;3.80;1.77;;;13.70;99.90;;;;;;6248817;22;20335;-89
2022/05/06 09:30:17;;;;;;;3.65;2.35;;;13.90;99.90;;;;;;6245829;22;20078;-90
2022/05/06 09:33:55;;;;;;;3.40;1.55;;;13.90;99.90;;;;;;6229109;23;20159;-89
2022/05/06 09:37:22;;;;;;;3.38;2.15;;;14.00;99.90;;;;;;6095506;23;20034;-90
2022/05/06 12:23:30;;;;;;;12.40;5.73;;;18.60;1.00;;;;;;6179504;22;20223;-90
2022/05/06 12:25:57;;;;;;;12.02;7.95;;;18.60;1.00;;;;;;6217358;23;20020;-89
2022/05/06 13:44:43;;;;;;;8.77;5.95;;;20.10;1.00;;;;;;6101198;23;20450;-87
2022/05/06 13:47:48;;;;;;;10.40;6.50;;;20.40;1.00;;;;;;6128232;23;20025;-86
2022/05/06 14:00:34;;;;;;;;;;;;;;;;;;;;;
2022/05/06 14:07:16;;;;;;;10.65;5.93;;;20.80;1.00;;;;;;6203928;22;20117;-88
2022/05/06 14:23:30;;;;;;;13.18;7.40;;;21.20;1.00;;;;;;6247452;23;20023;-90
2022/05/06 14:35:45;;;;;;;7.53;5.15;;;21.50;1.00;;;;;;6038405;23;20026;-89
2022/05/06 14:46:12;;;;;;;13.05;7.75;;;21.80;1.00;;;;;;6270658;22;20090;-90
2022/05/06 18:47:02;;;;;;;;;;;;;;;;;;;;;
2022/05/06 18:51:10;;;;;;;7.68;3.88;;;19.00;1.00;;;;;;6248247;22;20099;-91
2022/05/06 18:55:09;;;;;;;5.95;3.08;;;18.90;1.00;;;;;;6169215;23;20027;-92
2022/05/06 18:59:07;;;;;;;;;;;;;;;;;;;;;
2022/05/06 19:46:45;;;;;;;8.65;5.15;;;17.80;1.00;;;;;;6220162;23;20021;-90
2022/05/06 19:53:31;;;;;;;5.43;3.42;;;17.60;1.00;;;;;;6248227;23;20019;-92
